sensor_id;sensor_type;location;lat;lon;timestamp;temperature;humidity
50013;DHT22;35901;48.694;9.476;2023-08-31T00:00:42;12.40;99.90
50013;DHT22;35901;48.694;9.476;2023-08-31T00:03:08;12.40;99.90
50013;DHT22;35901;48.694;9.476;2023-08-31T00:05:40;12.40;99.90
50013;DHT22;35901;48.694;9.476;2023-08-31T00:08:06;12.40;99.90
50013;DHT22;35901;48.694;9.476;2023-08-31T00:10:33;12.40;99.90
50013;DHT22;35901;48.694;9.476;2023-08-31T00:12:58;12.40;99.90
50013;DHT22;35901;48.694;9.476;2023-08-31T00:15:24;12.40;99.90
50013;DHT22;35901;48.694;9.476;2023-08-31T00:17:49;12.40;99.90
50013;DHT22;35901;48.694;9.476;2023-08-31T00:20:16;12.40;99.90
50013;DHT22;35901;48.694;9.476;2023-08-31T00:22:41;12.50;99.90
50013;DHT22;35901;48.694;9.476;2023-08-31T00:25:07;12.50;99.90
50013;DHT22;35901;48.694;9.476;2023-08-31T00:27:34;12.50;99.90
50013;DHT22;35901;48.694;9.476;2023-08-31T00:30:04;12.50;99.90
50013;DHT22;35901;48.694;9.476;2023-08-31T00:32:31;12.50;99.90
50013;DHT22;35901;48.694;9.476;2023-08-31T00:34:59;12.50;99.90
50013;DHT22;35901;48.694;9.476;2023-08-31T00:37:24;12.50;99.90
50013;DHT22;35901;48.694;9.476;2023-08-31T00:39:50;12.50;99.90
50013;DHT22;35901;48.694;9.476;2023-08-31T00:42:18;12.50;99.90
50013;DHT22;35901;48.694;9.476;2023-08-31T00:44:44;12.50;99.90
50013;DHT22;35901;48.694;9.476;2023-08-31T00:47:13;12.40;99.90
50013;DHT22;35901;48.694;9.476;2023-08-31T00:49:40;12.40;99.90
50013;DHT22;35901;48.694;9.476;2023-08-31T00:52:06;12.40;99.90
50013;DHT22;35901;48.694;9.476;2023-08-31T00:54:33;12.40;99.90
50013;DHT22;35901;48.694;9.476;2023-08-31T00:57:00;12.40;99.90
50013;DHT22;35901;48.694;9.476;2023-08-31T00:59:26;12.40;99.90
50013;DHT22;35901;48.694;9.476;2023-08-31T01:04:48;12.40;99.90
50013;DHT22;35901;48.694;9.476;2023-08-31T01:07:51;12.30;99.90
50013;DHT22;35901;48.694;9.476;2023-08-31T01:10:32;12.30;99.90
50013;DHT22;35901;48.694;9.476;2023-08-31T01:13:11;12.30;99.90
50013;DHT22;35901;48.694;9.476;2023-08-31T01:15:41;12.30;99.90
50013;DHT22;35901;48.694;9.476;2023-08-31T01:18:10;12.20;99.90
50013;DHT22;35901;48.694;9.476;2023-08-31T01:20:52;12.20;99.90
50013;DHT22;35901;48.694;9.476;2023-08-31T01:23:21;12.20;99.90
50013;DHT22;35901;48.694;9.476;2023-08-31T01:25:53;12.10;99.90
50013;DHT22;35901;48.694;9.476;2023-08-31T01:28:22;12.00;99.90
50013;DHT22;35901;48.694;9.476;2023-08-31T01:30:47;11.90;99.90
50013;DHT22;35901;48.694;9.476;2023-08-31T01:33:13;11.80;99.90
50013;DHT22;35901;48.694;9.476;2023-08-31T01:35:45;11.70;99.90
50013;DHT22;35901;48.694;9.476;2023-08-31T01:38:15;11.70;99.90
50013;DHT22;35901;48.694;9.476;2023-08-31T01:41:07;11.60;99.90
50013;DHT22;35901;48.694;9.476;2023-08-31T01:43:36;11.60;99.90
50013;DHT22;35901;48.694;9.476;2023-08-31T01:46:02;11.70;99.90
50013;DHT22;35901;48.694;9.476;2023-08-31T01:48:28;11.80;99.90
50013;DHT22;35901;48.694;9.476;2023-08-31T01:50:54;11.80;99.90
50013;DHT22;35901;48.694;9.476;2023-08-31T01:53:19;11.80;99.90
50013;DHT22;35901;48.694;9.476;2023-08-31T01:55:45;11.80;99.90
50013;DHT22;35901;48.694;9.476;2023-08-31T01:58:10;11.80;99.90
50013;DHT22;35901;48.694;9.476;2023-08-31T02:00:36;11.80;99.90
50013;DHT22;35901;48.694;9.476;2023-08-31T02:03:04;11.80;99.90
50013;DHT22;35901;48.694;9.476;2023-08-31T02:05:29;11.80;99.90
50013;DHT22;35901;48.694;9.476;2023-08-31T02:07:55;11.80;99.90
50013;DHT22;35901;48.694;9.476;2023-08-31T02:10:25;11.80;99.90
50013;DHT22;35901;48.694;9.476;2023-08-31T02:12:52;11.90;99.90
50013;DHT22;35901;48.694;9.476;2023-08-31T02:15:18;11.90;99.90
50013;DHT22;35901;48.694;9.476;2023-08-31T02:17:44;11.90;99.90
50013;DHT22;35901;48.694;9.476;2023-08-31T02:20:10;11.90;99.90
50013;DHT22;35901;48.694;9.476;2023-08-31T02:22:36;11.90;99.90
50013;DHT22;35901;48.694;9.476;2023-08-31T02:25:02;11.90;99.90
50013;DHT22;35901;48.694;9.476;2023-08-31T02:27:28;12.00;99.90
50013;DHT22;35901;48.694;9.476;2023-08-31T02:29:53;11.90;99.90
50013;DHT22;35901;48.694;9.476;2023-08-31T02:32:19;11.90;99.90
50013;DHT22;35901;48.694;9.476;2023-08-31T02:34:45;12.00;99.90
50013;DHT22;35901;48.694;9.476;2023-08-31T02:37:11;12.00;99.90
50013;DHT22;35901;48.694;9.476;2023-08-31T02:39:37;11.90;99.90
50013;DHT22;35901;48.694;9.476;2023-08-31T02:42:02;12.00;99.90
50013;DHT22;35901;48.694;9.476;2023-08-31T02:44:31;12.00;99.90
50013;DHT22;35901;48.694;9.476;2023-08-31T02:46:56;12.00;99.90
50013;DHT22;35901;48.694;9.476;2023-08-31T02:49:22;12.00;99.90
50013;DHT22;35901;48.694;9.476;2023-08-31T02:51:48;12.00;99.90
50013;DHT22;35901;48.694;9.476;2023-08-31T02:54:15;12.00;99.90
50013;DHT22;35901;48.694;9.476;2023-08-31T02:56:40;12.00;99.90
50013;DHT22;35901;48.694;9.476;2023-08-31T02:59:06;12.00;99.90
50013;DHT22;35901;48.694;9.476;2023-08-31T03:01:33;11.90;99.90
50013;DHT22;35901;48.694;9.476;2023-08-31T03:03:59;11.90;99.90
50013;DHT22;35901;48.694;9.476;2023-08-31T03:06:25;11.90;99.90
50013;DHT22;35901;48.694;9.476;2023-08-31T03:08:51;11.80;99.90
50013;DHT22;35901;48.694;9.476;2023-08-31T03:11:17;11.80;99.90
50013;DHT22;35901;48.694;9.476;2023-08-31T03:13:43;11.80;99.90
50013;DHT22;35901;48.694;9.476;2023-08-31T03:16:10;11.80;99.90
50013;DHT22;35901;48.694;9.476;2023-08-31T03:18:36;11.80;99.90
50013;DHT22;35901;48.694;9.476;2023-08-31T03:21:02;11.80;99.90
50013;DHT22;35901;48.694;9.476;2023-08-31T03:23:29;11.80;99.90
50013;DHT22;35901;48.694;9.476;2023-08-31T03:25:56;11.70;99.90
50013;DHT22;35901;48.694;9.476;2023-08-31T03:28:25;11.60;99.90
50013;DHT22;35901;48.694;9.476;2023-08-31T03:30:55;11.50;99.90
50013;DHT22;35901;48.694;9.476;2023-08-31T03:33:21;11.50;99.90
50013;DHT22;35901;48.694;9.476;2023-08-31T03:35:47;11.40;99.90
50013;DHT22;35901;48.694;9.476;2023-08-31T03:38:13;11.50;99.90
50013;DHT22;35901;48.694;9.476;2023-08-31T03:40:39;11.50;99.90
50013;DHT22;35901;48.694;9.476;2023-08-31T03:43:05;11.60;99.90
50013;DHT22;35901;48.694;9.476;2023-08-31T03:45:31;11.60;99.90
50013;DHT22;35901;48.694;9.476;2023-08-31T03:47:56;11.60;99.90
50013;DHT22;35901;48.694;9.476;2023-08-31T03:50:24;11.70;99.90
50013;DHT22;35901;48.694;9.476;2023-08-31T03:52:50;11.70;99.90
50013;DHT22;35901;48.694;9.476;2023-08-31T03:55:15;11.80;99.90
50013;DHT22;35901;48.694;9.476;2023-08-31T03:57:41;11.80;99.90
50013;DHT22;35901;48.694;9.476;2023-08-31T04:00:14;11.80;99.90
50013;DHT22;35901;48.694;9.476;2023-08-31T04:02:42;11.80;99.90
50013;DHT22;35901;48.694;9.476;2023-08-31T04:05:08;11.70;99.90
50013;DHT22;35901;48.694;9.476;2023-08-31T04:07:35;11.70;99.90
50013;DHT22;35901;48.694;9.476;2023-08-31T04:10:01;11.70;99.90
50013;DHT22;35901;48.694;9.476;2023-08-31T04:12:27;11.70;99.90
50013;DHT22;35901;48.694;9.476;2023-08-31T04:14:55;11.80;99.90
50013;DHT22;35901;48.694;9.476;2023-08-31T04:17:20;11.80;99.90
50013;DHT22;35901;48.694;9.476;2023-08-31T04:19:46;11.80;99.90
50013;DHT22;35901;48.694;9.476;2023-08-31T04:22:12;11.80;99.90
50013;DHT22;35901;48.694;9.476;2023-08-31T04:24:37;11.80;99.90
50013;DHT22;35901;48.694;9.476;2023-08-31T04:27:03;11.80;99.90
50013;DHT22;35901;48.694;9.476;2023-08-31T04:29:29;11.80;99.90
50013;DHT22;35901;48.694;9.476;2023-08-31T04:31:55;11.80;99.90
50013;DHT22;35901;48.694;9.476;2023-08-31T04:34:20;11.80;99.90
50013;DHT22;35901;48.694;9.476;2023-08-31T04:36:46;11.70;99.90
50013;DHT22;35901;48.694;9.476;2023-08-31T04:39:12;11.70;99.90
50013;DHT22;35901;48.694;9.476;2023-08-31T04:41:37;11.70;99.90
50013;DHT22;35901;48.694;9.476;2023-08-31T04:44:03;11.70;99.90
50013;DHT22;35901;48.694;9.476;2023-08-31T04:46:29;11.70;99.90
50013;DHT22;35901;48.694;9.476;2023-08-31T04:48:54;11.70;99.90
50013;DHT22;35901;48.694;9.476;2023-08-31T04:51:36;11.70;99.90
50013;DHT22;35901;48.694;9.476;2023-08-31T04:54:07;11.70;99.90
50013;DHT22;35901;48.694;9.476;2023-08-31T04:56:33;11.70;99.90
50013;DHT22;35901;48.694;9.476;2023-08-31T04:58:59;11.70;99.90
50013;DHT22;35901;48.694;9.476;2023-08-31T05:01:25;11.70;99.90
50013;DHT22;35901;48.694;9.476;2023-08-31T05:03:50;11.70;99.90
50013;DHT22;35901;48.694;9.476;2023-08-31T05:06:17;11.60;99.90
50013;DHT22;35901;48.694;9.476;2023-08-31T05:08:43;11.60;99.90
50013;DHT22;35901;48.694;9.476;2023-08-31T05:11:09;11.60;99.90
50013;DHT22;35901;48.694;9.476;2023-08-31T05:13:35;11.70;99.90
50013;DHT22;35901;48.694;9.476;2023-08-31T05:16:01;11.70;99.90
50013;DHT22;35901;48.694;9.476;2023-08-31T05:18:28;11.70;99.90
50013;DHT22;35901;48.694;9.476;2023-08-31T05:20:53;11.80;99.90
50013;DHT22;35901;48.694;9.476;2023-08-31T05:23:19;11.80;99.90
50013;DHT22;35901;48.694;9.476;2023-08-31T05:25:45;11.80;99.90
50013;DHT22;35901;48.694;9.476;2023-08-31T05:28:11;11.90;99.90
50013;DHT22;35901;48.694;9.476;2023-08-31T05:30:52;11.90;99.90
50013;DHT22;35901;48.694;9.476;2023-08-31T05:33:19;11.90;99.90
50013;DHT22;35901;48.694;9.476;2023-08-31T05:35:45;12.00;99.90
50013;DHT22;35901;48.694;9.476;2023-08-31T05:38:11;12.00;99.90
50013;DHT22;35901;48.694;9.476;2023-08-31T05:40:37;12.00;99.90
50013;DHT22;35901;48.694;9.476;2023-08-31T05:43:04;12.10;99.90
50013;DHT22;35901;48.694;9.476;2023-08-31T05:45:35;12.10;99.90
50013;DHT22;35901;48.694;9.476;2023-08-31T05:48:01;12.20;99.90
50013;DHT22;35901;48.694;9.476;2023-08-31T05:50:27;12.20;99.90
50013;DHT22;35901;48.694;9.476;2023-08-31T05:52:53;12.20;99.90
50013;DHT22;35901;48.694;9.476;2023-08-31T05:55:20;12.20;99.90
50013;DHT22;35901;48.694;9.476;2023-08-31T05:57:45;12.30;99.90
50013;DHT22;35901;48.694;9.476;2023-08-31T06:00:11;12.40;99.90
50013;DHT22;35901;48.694;9.476;2023-08-31T06:02:41;12.50;99.90
50013;DHT22;35901;48.694;9.476;2023-08-31T06:05:07;12.60;99.90
50013;DHT22;35901;48.694;9.476;2023-08-31T06:07:33;12.70;99.90
50013;DHT22;35901;48.694;9.476;2023-08-31T06:09:59;12.90;99.90
50013;DHT22;35901;48.694;9.476;2023-08-31T06:12:24;13.10;99.90
50013;DHT22;35901;48.694;9.476;2023-08-31T06:14:50;13.10;99.90
50013;DHT22;35901;48.694;9.476;2023-08-31T06:17:15;13.20;99.90
50013;DHT22;35901;48.694;9.476;2023-08-31T06:19:41;13.20;99.90
50013;DHT22;35901;48.694;9.476;2023-08-31T06:22:08;13.20;99.90
50013;DHT22;35901;48.694;9.476;2023-08-31T06:24:34;13.20;99.90
50013;DHT22;35901;48.694;9.476;2023-08-31T06:27:00;13.20;99.90
50013;DHT22;35901;48.694;9.476;2023-08-31T06:29:26;13.20;99.90
50013;DHT22;35901;48.694;9.476;2023-08-31T06:31:52;13.10;99.90
50013;DHT22;35901;48.694;9.476;2023-08-31T06:34:18;13.10;99.90
50013;DHT22;35901;48.694;9.476;2023-08-31T06:36:43;13.10;99.90
50013;DHT22;35901;48.694;9.476;2023-08-31T06:39:09;13.10;99.90
50013;DHT22;35901;48.694;9.476;2023-08-31T06:41:35;13.10;99.90
50013;DHT22;35901;48.694;9.476;2023-08-31T06:44:04;13.20;99.90
50013;DHT22;35901;48.694;9.476;2023-08-31T06:46:31;13.20;99.90
50013;DHT22;35901;48.694;9.476;2023-08-31T06:49:05;13.40;99.90
50013;DHT22;35901;48.694;9.476;2023-08-31T06:51:34;13.80;99.90
50013;DHT22;35901;48.694;9.476;2023-08-31T06:54:00;14.30;99.90
50013;DHT22;35901;48.694;9.476;2023-08-31T06:56:35;15.00;99.90
50013;DHT22;35901;48.694;9.476;2023-08-31T06:59:00;15.50;99.90
50013;DHT22;35901;48.694;9.476;2023-08-31T07:01:26;15.70;99.90
50013;DHT22;35901;48.694;9.476;2023-08-31T07:03:55;15.80;99.90
50013;DHT22;35901;48.694;9.476;2023-08-31T07:06:21;15.70;99.90
50013;DHT22;35901;48.694;9.476;2023-08-31T07:08:47;15.60;99.90
50013;DHT22;35901;48.694;9.476;2023-08-31T07:11:14;15.40;99.90
50013;DHT22;35901;48.694;9.476;2023-08-31T07:13:40;15.30;99.90
50013;DHT22;35901;48.694;9.476;2023-08-31T07:16:06;15.20;99.90
50013;DHT22;35901;48.694;9.476;2023-08-31T07:18:32;15.10;99.90
50013;DHT22;35901;48.694;9.476;2023-08-31T07:20:57;15.10;99.90
50013;DHT22;35901;48.694;9.476;2023-08-31T07:23:23;15.00;99.90
50013;DHT22;35901;48.694;9.476;2023-08-31T07:25:49;15.00;99.90
50013;DHT22;35901;48.694;9.476;2023-08-31T07:28:15;15.10;99.90
50013;DHT22;35901;48.694;9.476;2023-08-31T07:30:40;15.20;99.90
50013;DHT22;35901;48.694;9.476;2023-08-31T07:33:06;15.30;99.90
50013;DHT22;35901;48.694;9.476;2023-08-31T07:35:32;15.30;99.90
50013;DHT22;35901;48.694;9.476;2023-08-31T07:37:58;15.30;99.90
50013;DHT22;35901;48.694;9.476;2023-08-31T07:40:23;15.30;99.90
50013;DHT22;35901;48.694;9.476;2023-08-31T07:42:50;15.20;99.90
50013;DHT22;35901;48.694;9.476;2023-08-31T07:45:17;15.10;99.90
50013;DHT22;35901;48.694;9.476;2023-08-31T07:47:43;15.00;99.90
50013;DHT22;35901;48.694;9.476;2023-08-31T07:50:09;14.90;99.90
50013;DHT22;35901;48.694;9.476;2023-08-31T07:52:36;14.90;99.90
50013;DHT22;35901;48.694;9.476;2023-08-31T07:55:03;14.90;99.90
50013;DHT22;35901;48.694;9.476;2023-08-31T07:57:29;14.80;99.90
50013;DHT22;35901;48.694;9.476;2023-08-31T07:59:55;14.80;99.90
50013;DHT22;35901;48.694;9.476;2023-08-31T08:02:20;14.90;99.90
50013;DHT22;35901;48.694;9.476;2023-08-31T08:04:46;15.10;99.90
50013;DHT22;35901;48.694;9.476;2023-08-31T08:07:12;15.40;99.90
50013;DHT22;35901;48.694;9.476;2023-08-31T08:09:37;15.80;99.90
50013;DHT22;35901;48.694;9.476;2023-08-31T08:12:03;16.30;99.90
50013;DHT22;35901;48.694;9.476;2023-08-31T08:14:29;16.80;99.90
50013;DHT22;35901;48.694;9.476;2023-08-31T08:16:55;17.10;99.90
50013;DHT22;35901;48.694;9.476;2023-08-31T08:19:24;17.40;99.90
50013;DHT22;35901;48.694;9.476;2023-08-31T08:21:50;17.50;99.90
50013;DHT22;35901;48.694;9.476;2023-08-31T08:24:16;17.60;99.90
50013;DHT22;35901;48.694;9.476;2023-08-31T08:26:42;17.80;99.90
50013;DHT22;35901;48.694;9.476;2023-08-31T08:29:07;18.20;99.90
50013;DHT22;35901;48.694;9.476;2023-08-31T08:31:33;18.60;99.90
50013;DHT22;35901;48.694;9.476;2023-08-31T08:33:59;18.60;99.90
50013;DHT22;35901;48.694;9.476;2023-08-31T08:36:26;18.80;99.90
50013;DHT22;35901;48.694;9.476;2023-08-31T08:38:51;18.90;99.90
50013;DHT22;35901;48.694;9.476;2023-08-31T08:41:23;19.20;99.90
50013;DHT22;35901;48.694;9.476;2023-08-31T08:43:51;19.40;99.90
50013;DHT22;35901;48.694;9.476;2023-08-31T08:46:17;19.70;99.90
50013;DHT22;35901;48.694;9.476;2023-08-31T08:48:44;19.50;99.90
50013;DHT22;35901;48.694;9.476;2023-08-31T08:51:10;19.60;99.90
50013;DHT22;35901;48.694;9.476;2023-08-31T08:53:37;19.40;99.90
50013;DHT22;35901;48.694;9.476;2023-08-31T08:56:04;19.10;99.90
50013;DHT22;35901;48.694;9.476;2023-08-31T08:58:30;18.90;99.90
50013;DHT22;35901;48.694;9.476;2023-08-31T09:00:56;18.80;99.90
50013;DHT22;35901;48.694;9.476;2023-08-31T09:03:23;18.90;99.90
50013;DHT22;35901;48.694;9.476;2023-08-31T09:05:50;19.30;99.90
50013;DHT22;35901;48.694;9.476;2023-08-31T09:08:16;19.70;99.90
50013;DHT22;35901;48.694;9.476;2023-08-31T09:10:43;19.60;99.90
50013;DHT22;35901;48.694;9.476;2023-08-31T09:13:16;19.30;99.90
50013;DHT22;35901;48.694;9.476;2023-08-31T09:15:47;19.30;99.90
50013;DHT22;35901;48.694;9.476;2023-08-31T09:18:27;19.30;99.90
50013;DHT22;35901;48.694;9.476;2023-08-31T09:20:54;19.30;99.90
50013;DHT22;35901;48.694;9.476;2023-08-31T09:23:22;19.40;99.90
50013;DHT22;35901;48.694;9.476;2023-08-31T09:25:49;19.30;99.90
50013;DHT22;35901;48.694;9.476;2023-08-31T09:28:16;19.30;99.90
50013;DHT22;35901;48.694;9.476;2023-08-31T09:30:46;19.10;99.90
50013;DHT22;35901;48.694;9.476;2023-08-31T09:33:17;18.90;99.90
50013;DHT22;35901;48.694;9.476;2023-08-31T09:35:56;18.60;99.90
50013;DHT22;35901;48.694;9.476;2023-08-31T09:38:22;18.60;99.90
50013;DHT22;35901;48.694;9.476;2023-08-31T09:40:48;18.50;99.90
50013;DHT22;35901;48.694;9.476;2023-08-31T09:43:23;18.30;99.90
50013;DHT22;35901;48.694;9.476;2023-08-31T09:45:50;18.20;99.90
50013;DHT22;35901;48.694;9.476;2023-08-31T09:48:16;18.00;99.90
50013;DHT22;35901;48.694;9.476;2023-08-31T09:50:46;18.10;99.90
50013;DHT22;35901;48.694;9.476;2023-08-31T09:53:16;18.10;99.90
50013;DHT22;35901;48.694;9.476;2023-08-31T09:55:43;18.10;99.90
50013;DHT22;35901;48.694;9.476;2023-08-31T09:58:09;18.60;99.90
50013;DHT22;35901;48.694;9.476;2023-08-31T10:00:36;18.90;99.90
50013;DHT22;35901;48.694;9.476;2023-08-31T10:03:04;19.30;99.90
50013;DHT22;35901;48.694;9.476;2023-08-31T10:05:30;19.40;99.90
50013;DHT22;35901;48.694;9.476;2023-08-31T10:07:57;19.30;99.90
50013;DHT22;35901;48.694;9.476;2023-08-31T10:10:24;19.70;99.90
50013;DHT22;35901;48.694;9.476;2023-08-31T10:12:50;20.10;99.90
50013;DHT22;35901;48.694;9.476;2023-08-31T10:15:18;20.50;99.90
50013;DHT22;35901;48.694;9.476;2023-08-31T10:17:45;20.80;99.50
50013;DHT22;35901;48.694;9.476;2023-08-31T10:20:20;21.30;96.30
50013;DHT22;35901;48.694;9.476;2023-08-31T10:22:45;21.10;96.90
50013;DHT22;35901;48.694;9.476;2023-08-31T10:25:11;20.50;96.80
50013;DHT22;35901;48.694;9.476;2023-08-31T10:27:44;20.00;95.40
50013;DHT22;35901;48.694;9.476;2023-08-31T10:30:27;19.40;94.10
50013;DHT22;35901;48.694;9.476;2023-08-31T10:38:28;18.40;97.40
50013;DHT22;35901;48.694;9.476;2023-08-31T10:43:58;18.20;97.50
50013;DHT22;35901;48.694;9.476;2023-08-31T10:46:30;18.70;97.50
50013;DHT22;35901;48.694;9.476;2023-08-31T10:51:28;19.20;96.70
50013;DHT22;35901;48.694;9.476;2023-08-31T10:54:23;19.10;95.90
50013;DHT22;35901;48.694;9.476;2023-08-31T11:00:00;19.40;95.80
50013;DHT22;35901;48.694;9.476;2023-08-31T11:12:40;19.50;94.80
50013;DHT22;35901;48.694;9.476;2023-08-31T11:15:07;19.30;94.90
50013;DHT22;35901;48.694;9.476;2023-08-31T11:17:33;19.50;95.70
50013;DHT22;35901;48.694;9.476;2023-08-31T11:19:59;20.10;95.00
50013;DHT22;35901;48.694;9.476;2023-08-31T11:22:25;20.40;93.90
50013;DHT22;35901;48.694;9.476;2023-08-31T11:24:51;20.30;93.10
50013;DHT22;35901;48.694;9.476;2023-08-31T11:27:21;20.00;92.90
50013;DHT22;35901;48.694;9.476;2023-08-31T11:29:47;20.10;93.80
50013;DHT22;35901;48.694;9.476;2023-08-31T11:32:13;20.10;94.40
50013;DHT22;35901;48.694;9.476;2023-08-31T11:34:43;20.10;94.00
50013;DHT22;35901;48.694;9.476;2023-08-31T11:37:10;20.30;93.50
50013;DHT22;35901;48.694;9.476;2023-08-31T11:39:37;20.20;94.00
50013;DHT22;35901;48.694;9.476;2023-08-31T11:42:03;20.20;94.20
50013;DHT22;35901;48.694;9.476;2023-08-31T11:44:30;20.10;93.60
50013;DHT22;35901;48.694;9.476;2023-08-31T11:46:56;19.90;94.00
50013;DHT22;35901;48.694;9.476;2023-08-31T11:49:22;19.90;93.60
50013;DHT22;35901;48.694;9.476;2023-08-31T11:51:49;19.90;93.70
50013;DHT22;35901;48.694;9.476;2023-08-31T11:54:18;19.90;93.70
50013;DHT22;35901;48.694;9.476;2023-08-31T11:56:47;19.80;93.40
50013;DHT22;35901;48.694;9.476;2023-08-31T11:59:17;19.70;94.00
50013;DHT22;35901;48.694;9.476;2023-08-31T12:01:48;20.00;93.80
50013;DHT22;35901;48.694;9.476;2023-08-31T12:04:15;20.10;94.20
50013;DHT22;35901;48.694;9.476;2023-08-31T12:06:41;20.10;94.20
50013;DHT22;35901;48.694;9.476;2023-08-31T12:09:11;20.00;93.20
50013;DHT22;35901;48.694;9.476;2023-08-31T12:11:37;19.90;93.70
50013;DHT22;35901;48.694;9.476;2023-08-31T12:14:03;20.00;93.70
50013;DHT22;35901;48.694;9.476;2023-08-31T12:16:36;20.00;92.80
50013;DHT22;35901;48.694;9.476;2023-08-31T12:19:05;19.90;92.30
50013;DHT22;35901;48.694;9.476;2023-08-31T12:21:32;19.70;93.00
50013;DHT22;35901;48.694;9.476;2023-08-31T12:23:58;19.80;94.20
50013;DHT22;35901;48.694;9.476;2023-08-31T12:26:25;20.30;96.10
50013;DHT22;35901;48.694;9.476;2023-08-31T12:28:51;21.00;94.20
50013;DHT22;35901;48.694;9.476;2023-08-31T12:31:16;21.50;94.50
50013;DHT22;35901;48.694;9.476;2023-08-31T12:33:42;22.00;93.40
50013;DHT22;35901;48.694;9.476;2023-08-31T12:36:08;22.10;93.20
50013;DHT22;35901;48.694;9.476;2023-08-31T12:38:34;21.80;92.30
50013;DHT22;35901;48.694;9.476;2023-08-31T12:41:00;21.80;92.40
50013;DHT22;35901;48.694;9.476;2023-08-31T12:43:28;21.80;91.50
50013;DHT22;35901;48.694;9.476;2023-08-31T12:45:55;21.40;90.50
50013;DHT22;35901;48.694;9.476;2023-08-31T12:48:21;21.00;89.20
50013;DHT22;35901;48.694;9.476;2023-08-31T12:50:47;20.80;90.00
50013;DHT22;35901;48.694;9.476;2023-08-31T12:53:16;21.00;88.40
50013;DHT22;35901;48.694;9.476;2023-08-31T12:55:42;20.80;89.00
50013;DHT22;35901;48.694;9.476;2023-08-31T12:58:08;20.60;90.30
50013;DHT22;35901;48.694;9.476;2023-08-31T13:00:33;20.40;90.30
50013;DHT22;35901;48.694;9.476;2023-08-31T13:02:59;20.40;90.50
50013;DHT22;35901;48.694;9.476;2023-08-31T13:05:26;20.70;90.30
50013;DHT22;35901;48.694;9.476;2023-08-31T13:07:54;21.00;90.30
50013;DHT22;35901;48.694;9.476;2023-08-31T13:10:20;21.10;91.00
50013;DHT22;35901;48.694;9.476;2023-08-31T13:12:46;21.40;90.40
50013;DHT22;35901;48.694;9.476;2023-08-31T13:15:12;21.20;90.10
50013;DHT22;35901;48.694;9.476;2023-08-31T13:17:39;21.70;90.90
50013;DHT22;35901;48.694;9.476;2023-08-31T13:20:06;22.20;91.60
50013;DHT22;35901;48.694;9.476;2023-08-31T13:22:31;22.20;89.10
50013;DHT22;35901;48.694;9.476;2023-08-31T13:24:57;21.70;88.60
50013;DHT22;35901;48.694;9.476;2023-08-31T13:27:23;21.30;90.40
50013;DHT22;35901;48.694;9.476;2023-08-31T13:29:48;21.40;90.70
50013;DHT22;35901;48.694;9.476;2023-08-31T13:32:14;21.70;87.90
50013;DHT22;35901;48.694;9.476;2023-08-31T13:34:40;22.00;85.00
50013;DHT22;35901;48.694;9.476;2023-08-31T13:37:06;21.80;86.50
50013;DHT22;35901;48.694;9.476;2023-08-31T13:39:34;21.70;86.90
50013;DHT22;35901;48.694;9.476;2023-08-31T13:42:01;21.80;85.70
50013;DHT22;35901;48.694;9.476;2023-08-31T13:44:29;21.40;87.10
50013;DHT22;35901;48.694;9.476;2023-08-31T13:46:55;21.10;87.50
50013;DHT22;35901;48.694;9.476;2023-08-31T13:49:21;20.70;88.60
50013;DHT22;35901;48.694;9.476;2023-08-31T13:51:47;20.40;88.60
50013;DHT22;35901;48.694;9.476;2023-08-31T13:54:12;20.10;89.60
50013;DHT22;35901;48.694;9.476;2023-08-31T13:56:38;19.90;90.20
50013;DHT22;35901;48.694;9.476;2023-08-31T13:59:04;19.70;90.90
50013;DHT22;35901;48.694;9.476;2023-08-31T14:01:29;19.70;91.40
50013;DHT22;35901;48.694;9.476;2023-08-31T14:03:55;19.60;91.90
50013;DHT22;35901;48.694;9.476;2023-08-31T14:06:21;19.50;92.70
50013;DHT22;35901;48.694;9.476;2023-08-31T14:08:47;19.60;93.30
50013;DHT22;35901;48.694;9.476;2023-08-31T14:11:13;20.10;93.60
50013;DHT22;35901;48.694;9.476;2023-08-31T14:13:39;20.60;92.80
50013;DHT22;35901;48.694;9.476;2023-08-31T14:16:07;20.70;92.50
50013;DHT22;35901;48.694;9.476;2023-08-31T14:18:32;20.70;93.20
50013;DHT22;35901;48.694;9.476;2023-08-31T14:20:58;20.60;93.50
50013;DHT22;35901;48.694;9.476;2023-08-31T14:23:25;20.70;94.30
50013;DHT22;35901;48.694;9.476;2023-08-31T14:25:51;21.00;93.60
50013;DHT22;35901;48.694;9.476;2023-08-31T14:28:16;21.30;93.30
50013;DHT22;35901;48.694;9.476;2023-08-31T14:30:42;21.20;93.20
50013;DHT22;35901;48.694;9.476;2023-08-31T14:33:08;21.00;93.40
50013;DHT22;35901;48.694;9.476;2023-08-31T14:35:38;20.80;93.20
50013;DHT22;35901;48.694;9.476;2023-08-31T14:38:04;20.50;93.20
50013;DHT22;35901;48.694;9.476;2023-08-31T14:40:30;20.20;93.30
50013;DHT22;35901;48.694;9.476;2023-08-31T14:42:56;20.10;93.60
50013;DHT22;35901;48.694;9.476;2023-08-31T14:45:22;20.00;93.50
50013;DHT22;35901;48.694;9.476;2023-08-31T14:47:47;19.90;93.40
50013;DHT22;35901;48.694;9.476;2023-08-31T14:50:13;19.70;94.00
50013;DHT22;35901;48.694;9.476;2023-08-31T14:52:38;19.70;94.30
50013;DHT22;35901;48.694;9.476;2023-08-31T14:55:04;19.60;94.40
50013;DHT22;35901;48.694;9.476;2023-08-31T14:57:30;19.70;94.20
50013;DHT22;35901;48.694;9.476;2023-08-31T14:59:56;19.70;94.20
50013;DHT22;35901;48.694;9.476;2023-08-31T15:02:24;19.80;94.40
50013;DHT22;35901;48.694;9.476;2023-08-31T15:04:50;19.80;94.70
50013;DHT22;35901;48.694;9.476;2023-08-31T15:07:16;19.90;94.50
50013;DHT22;35901;48.694;9.476;2023-08-31T15:09:43;20.10;94.70
50013;DHT22;35901;48.694;9.476;2023-08-31T15:12:09;20.30;94.80
50013;DHT22;35901;48.694;9.476;2023-08-31T15:14:34;20.40;94.80
50013;DHT22;35901;48.694;9.476;2023-08-31T15:17:00;20.50;94.30
50013;DHT22;35901;48.694;9.476;2023-08-31T15:19:25;20.40;94.50
50013;DHT22;35901;48.694;9.476;2023-08-31T15:21:51;20.50;94.50
50013;DHT22;35901;48.694;9.476;2023-08-31T15:24:17;20.40;94.00
50013;DHT22;35901;48.694;9.476;2023-08-31T15:26:42;20.40;94.30
50013;DHT22;35901;48.694;9.476;2023-08-31T15:29:11;20.40;94.30
50013;DHT22;35901;48.694;9.476;2023-08-31T15:31:37;20.30;93.60
50013;DHT22;35901;48.694;9.476;2023-08-31T15:34:02;20.20;94.20
50013;DHT22;35901;48.694;9.476;2023-08-31T15:36:29;20.00;94.70
50013;DHT22;35901;48.694;9.476;2023-08-31T15:38:54;19.80;94.70
50013;DHT22;35901;48.694;9.476;2023-08-31T15:41:23;19.60;95.10
50013;DHT22;35901;48.694;9.476;2023-08-31T15:43:49;19.50;95.20
50013;DHT22;35901;48.694;9.476;2023-08-31T15:46:16;19.40;95.40
50013;DHT22;35901;48.694;9.476;2023-08-31T15:48:41;19.30;96.20
50013;DHT22;35901;48.694;9.476;2023-08-31T15:51:07;19.20;96.10
50013;DHT22;35901;48.694;9.476;2023-08-31T15:53:33;19.10;97.00
50013;DHT22;35901;48.694;9.476;2023-08-31T15:55:59;19.00;97.10